Time;durP1;ratioP1;P1;durP2;ratioP2;P2;SDS_P1;SDS_P2;PMS_P1;PMS_P2;Temp;Humidity;BMP_temperature;BMP_pressure;BME280_temperature;BME280_humidity;BME280_pressure;Samples;Min_cycle;Max_cycle;Signal;HPM_P1;HPM_P2
2021/07/03 00:01:36;;;;;;;2.78;1.10;;;;;;;20.50;49.04;94432.09;2993686;39;20054;-74
2021/07/03 00:03:38;;;;;;;1.73;1.25;;;;;;;20.58;48.97;94435.25;2982089;39;20071;-71
2021/07/03 00:05:39;;;;;;;1.88;1.40;;;;;;;20.53;49.14;94437.78;2978783;39;20051;-72
2021/07/03 00:07:41;;;;;;;1.55;1.00;;;;;;;20.39;49.52;94437.16;2991131;39;20049;-72
2021/07/03 00:09:43;;;;;;;1.63;1.13;;;;;;;20.38;49.59;94432.88;2994369;39;20054;-72
2021/07/03 00:11:45;;;;;;;1.75;1.10;;;;;;;20.33;49.70;94435.41;2992392;39;20142;-73
2021/07/03 00:13:47;;;;;;;1.63;1.30;;;;;;;20.32;49.81;94444.41;2982363;39;20212;-71
2021/07/03 00:15:49;;;;;;;1.40;1.20;;;;;;;20.25;50.04;94436.53;2981384;39;20483;-71
2021/07/03 00:17:57;;;;;;;2.72;1.30;;;;;;;20.34;49.84;94447.66;2981761;39;20052;-71
2021/07/03 00:19:59;;;;;;;1.70;1.10;;;;;;;20.17;50.34;94454.63;2982423;39;20321;-71
2021/07/03 00:22:01;;;;;;;2.28;1.25;;;;;;;20.13;50.47;94445.47;2975064;39;20062;-72
2021/07/03 00:24:03;;;;;;;3.80;1.20;;;;;;;20.12;50.39;94442.03;2990180;39;20138;-72
2021/07/03 00:26:05;;;;;;;1.40;1.00;;;;;;;20.16;50.37;94450.38;2993026;39;20288;-80
2021/07/03 00:28:06;;;;;;;2.58;1.00;;;;;;;20.25;50.34;94454.34;2995165;39;20054;-80
2021/07/03 00:30:12;;;;;;;1.80;1.13;;;;;;;20.20;50.38;94456.88;2992519;39;20046;-80
2021/07/03 00:32:14;;;;;;;1.70;1.30;;;;;;;20.00;50.79;94454.44;2975134;39;20206;-79
2021/07/03 00:34:16;;;;;;;1.88;1.30;;;;;;;20.07;50.70;94449.88;2991404;39;20055;-79
2021/07/03 00:36:18;;;;;;;1.23;1.00;;;;;;;20.11;50.64;94455.53;2993135;39;20054;-80
2021/07/03 00:38:19;;;;;;;4.75;1.20;;;;;;;20.14;50.41;94452.44;2982255;39;20056;-80
2021/07/03 00:40:21;;;;;;;1.63;1.10;;;;;;;20.16;50.45;94458.34;2992683;39;20054;-80
2021/07/03 00:42:23;;;;;;;1.52;0.98;;;;;;;20.19;50.39;94464.00;2989073;39;20063;-79
2021/07/03 00:44:30;;;;;;;4.22;1.20;;;;;;;20.25;50.17;94459.66;2977903;39;20060;-80
2021/07/03 00:46:32;;;;;;;1.35;1.08;;;;;;;20.23;50.32;94461.72;2988993;39;20039;-79
2021/07/03 00:48:34;;;;;;;1.52;1.17;;;;;;;20.21;50.37;94461.13;2992541;39;20043;-79
2021/07/03 00:50:36;;;;;;;1.60;1.10;;;;;;;20.32;50.01;94459.56;2984182;39;20422;-81
2021/07/03 00:52:38;;;;;;;2.10;1.23;;;;;;;20.36;49.71;94458.88;2993215;39;20058;-80
2021/07/03 00:54:41;;;;;;;;;;;;;;;20.44;49.73;94453.25;2976347;39;20356;-81
2021/07/03 00:56:43;;;;;;;2.30;1.10;;;;;;;20.41;49.85;94458.19;2978473;39;19968;-79
2021/07/03 00:58:45;;;;;;;4.18;1.10;;;;;;;20.48;49.70;94450.13;2993438;39;20068;-79
2021/07/03 01:00:47;;;;;;;2.67;1.13;;;;;;;20.40;49.79;94454.75;2997611;39;20051;-78
2021/07/03 01:02:49;;;;;;;1.27;1.02;;;;;;;20.32;50.12;94449.72;2998916;39;20063;-80
2021/07/03 01:04:51;;;;;;;1.73;1.15;;;;;;;20.32;50.09;94457.72;2985247;39;20152;-78
2021/07/03 01:06:53;;;;;;;2.40;1.13;;;;;;;20.30;50.14;94459.78;2993589;39;20087;-80
2021/07/03 01:08:55;;;;;;;1.67;1.30;;;;;;;20.30;50.19;94453.66;2983099;39;20282;-81
2021/07/03 01:10:56;;;;;;;1.58;1.15;;;;;;;20.21;50.40;94445.97;2992867;39;20055;-72
2021/07/03 01:12:58;;;;;;;1.73;1.20;;;;;;;20.25;50.19;94451.69;2992849;39;20158;-72
2021/07/03 01:15:00;;;;;;;1.80;1.13;;;;;;;20.27;50.51;94454.13;2982416;39;20055;-72
2021/07/03 01:17:02;;;;;;;1.65;1.00;;;;;;;20.27;49.99;94454.13;2982471;39;20075;-70
2021/07/03 01:19:03;;;;;;;1.60;1.00;;;;;;;20.21;50.27;94453.16;2992998;39;20079;-72
2021/07/03 01:21:06;;;;;;;1.95;1.15;;;;;;;20.09;50.88;94457.59;2992912;39;20138;-71
2021/07/03 01:23:07;;;;;;;1.50;1.00;;;;;;;20.07;50.68;94457.84;2983058;39;20055;-71
2021/07/03 01:25:11;;;;;;;1.73;1.23;;;;;;;19.94;50.90;94455.31;2975910;39;20058;-72
2021/07/03 01:27:14;;;;;;;2.05;1.15;;;;;;;19.87;51.08;94455.41;2984599;39;20102;-71
2021/07/03 01:29:17;;;;;;;1.60;1.00;;;;;;;19.89;50.97;94448.03;2988023;39;20054;-71
2021/07/03 01:31:45;;;;;;;2.22;1.20;;;;;;;19.92;50.93;94446.75;2992396;39;20212;-79
2021/07/03 01:33:47;;;;;;;6.82;1.17;;;;;;;19.87;50.96;94444.78;2983045;39;20135;-78
2021/07/03 01:35:49;;;;;;;5.97;1.00;;;;;;;19.90;50.83;94439.03;2983894;39;20064;-79
2021/07/03 01:37:50;;;;;;;6.80;1.15;;;;;;;19.86;50.85;94447.69;2979573;39;20334;-80
2021/07/03 01:39:52;;;;;;;1.67;1.00;;;;;;;19.83;50.80;94444.44;2993496;39;20062;-79
2021/07/03 01:41:54;;;;;;;1.85;1.13;;;;;;;19.87;50.80;94434.13;2988792;39;20124;-80
2021/07/03 01:43:56;;;;;;;2.30;1.08;;;;;;;19.82;50.41;94437.47;2975575;39;20143;-80
2021/07/03 01:45:58;;;;;;;2.17;0.90;;;;;;;19.81;50.47;94435.03;2988624;39;20063;-79
2021/07/03 01:48:00;;;;;;;2.85;1.10;;;;;;;19.81;50.01;94430.53;2997571;39;20363;-80
2021/07/03 01:50:02;;;;;;;1.60;1.10;;;;;;;19.81;49.89;94443.84;2997471;39;20062;-80
2021/07/03 01:52:04;;;;;;;1.55;1.20;;;;;;;19.80;49.66;94444.06;2999970;39;20079;-80
2021/07/03 01:54:06;;;;;;;1.92;1.20;;;;;;;19.72;49.76;94445.16;2981923;39;20084;-80
2021/07/03 01:56:08;;;;;;;1.65;1.10;;;;;;;19.67;49.63;94442.31;2982872;39;20179;-70
2021/07/03 01:58:19;;;;;;;2.60;1.00;;;;;;;19.66;49.64;94446.03;2991611;39;20075;-71
2021/07/03 02:00:21;;;;;;;1.63;0.98;;;;;;;19.71;49.46;94443.53;2983316;39;20113;-70
2021/07/03 02:02:23;;;;;;;1.80;1.13;;;;;;;19.71;49.28;94438.22;2993678;39;20165;-71
2021/07/03 02:04:25;;;;;;;2.38;0.73;;;;;;;19.77;49.18;94428.56;2992435;39;20047;-71
2021/07/03 02:06:27;;;;;;;2.80;1.02;;;;;;;19.80;49.22;94428.91;2992436;39;20472;-72
2021/07/03 02:08:29;;;;;;;1.63;1.00;;;;;;;19.81;48.92;94425.22;2982470;39;20059;-70
2021/07/03 02:10:31;;;;;;;1.90;0.85;;;;;;;19.85;48.72;94433.56;2982734;39;20132;-71
2021/07/03 02:12:32;;;;;;;1.90;1.00;;;;;;;19.91;48.75;94432.66;2991935;39;20404;-71
2021/07/03 02:14:34;;;;;;;1.33;0.98;;;;;;;19.65;49.12;94431.91;2992505;39;20127;-71
2021/07/03 02:16:36;;;;;;;1.92;1.15;;;;;;;19.62;49.20;94432.38;2981814;39;20128;-81
2021/07/03 02:18:38;;;;;;;1.40;1.00;;;;;;;19.56;49.47;94437.75;2992682;39;20092;-80
2021/07/03 02:20:40;;;;;;;3.60;1.38;;;;;;;19.50;49.49;94436.78;2975553;39;20444;-80
2021/07/03 02:22:42;;;;;;;5.43;1.20;;;;;;;19.57;49.70;94429.53;2974912;39;20064;-78
2021/07/03 02:24:44;;;;;;;2.75;1.05;;;;;;;19.50;49.54;94428.81;2991674;39;20152;-79
2021/07/03 02:26:46;;;;;;;1.15;0.88;;;;;;;19.41;49.67;94438.09;2993088;39;20083;-79
2021/07/03 02:28:49;;;;;;;4.97;1.30;;;;;;;19.45;49.73;94420.69;2992348;39;20057;-79
2021/07/03 02:30:52;;;;;;;1.45;0.98;;;;;;;19.47;49.50;94425.78;2982969;39;20144;-78
2021/07/03 02:32:54;;;;;;;1.25;0.88;;;;;;;19.44;49.68;94429.69;2992008;39;20043;-79
2021/07/03 02:34:55;;;;;;;1.38;1.00;;;;;;;19.46;49.68;94430.28;2983048;39;20346;-81
2021/07/03 02:36:57;;;;;;;1.95;1.20;;;;;;;19.44;49.81;94432.34;2991771;39;20059;-78
2021/07/03 02:38:59;;;;;;;2.05;1.02;;;;;;;19.45;49.75;94439.28;2993008;39;20162;-78
2021/07/03 02:41:00;;;;;;;1.50;1.10;;;;;;;19.40;50.00;94444.44;2992410;39;20158;-78
2021/07/03 02:43:02;;;;;;;5.55;1.20;;;;;;;19.37;49.85;94444.88;2986198;39;20051;-81
2021/07/03 02:45:06;;;;;;;1.98;1.02;;;;;;;19.33;50.02;94451.66;2988427;39;20099;-78
2021/07/03 02:47:07;;;;;;;1.30;0.90;;;;;;;19.31;50.28;94453.72;2989377;39;20083;-78
2021/07/03 02:49:09;;;;;;;1.50;1.00;;;;;;;19.36;50.19;94452.06;2983141;39;20325;-80
2021/07/03 02:51:11;;;;;;;3.42;1.00;;;;;;;19.32;50.34;94450.88;2992763;39;20171;-79
2021/07/03 02:53:13;;;;;;;2.83;1.25;;;;;;;19.34;50.20;94453.31;2992146;39;20156;-81
2021/07/03 02:55:14;;;;;;;1.50;1.08;;;;;;;19.29;50.40;94458.44;2974645;39;20064;-79
2021/07/03 02:57:16;;;;;;;1.90;1.10;;;;;;;19.31;50.28;94449.22;2980654;39;20162;-80
2021/07/03 02:59:18;;;;;;;1.80;1.27;;;;;;;19.37;50.18;94451.00;2982695;39;20147;-79
2021/07/03 03:01:20;;;;;;;3.53;1.10;;;;;;;19.39;50.23;94462.22;2985432;39;20051;-81
2021/07/03 03:03:22;;;;;;;1.77;1.15;;;;;;;19.30;50.40;94468.84;2991043;39;20258;-80
2021/07/03 03:05:23;;;;;;;4.70;1.48;;;;;;;19.23;50.44;94466.25;2983053;39;20067;-80
2021/07/03 03:07:25;;;;;;;2.88;1.20;;;;;;;19.31;50.43;94467.81;2991803;39;20083;-79
2021/07/03 03:09:27;;;;;;;2.13;1.05;;;;;;;19.23;50.75;94466.25;2982818;39;20051;-79
2021/07/03 03:11:29;;;;;;;1.70;1.20;;;;;;;19.21;50.83;94467.53;2991995;39;20159;-77
2021/07/03 03:13:30;;;;;;;2.85;1.30;;;;;;;19.18;50.77;94476.72;2983144;39;20381;-77
2021/07/03 03:15:32;;;;;;;1.85;1.27;;;;;;;19.20;50.94;94477.31;2991878;39;20059;-78
2021/07/03 03:17:34;;;;;;;2.58;1.30;;;;;;;19.14;51.12;94475.53;2982382;39;20066;-79
2021/07/03 03:19:36;;;;;;;2.78;1.10;;;;;;;19.20;51.09;94479.16;2992726;39;20059;-80
2021/07/03 03:21:37;;;;;;;4.55;1.38;;;;;;;19.22;50.87;94491.19;2992465;39;20128;-79
2021/07/03 03:23:39;;;;;;;3.25;1.40;;;;;;;19.26;51.24;94486.25;2995805;39;20043;-71
2021/07/03 03:25:41;;;;;;;2.22;1.40;;;;;;;19.27;50.71;94487.88;2989637;39;20067;-70
2021/07/03 03:27:43;;;;;;;2.38;1.50;;;;;;;19.30;50.66;94484.78;2988623;39;20155;-72
2021/07/03 03:29:44;;;;;;;2.95;1.67;;;;;;;19.39;50.66;94495.94;2982754;39;20171;-71
2021/07/03 03:31:46;;;;;;;2.60;1.38;;;;;;;19.45;50.41;94489.75;2991193;39;20059;-71
2021/07/03 03:33:48;;;;;;;3.85;1.50;;;;;;;19.47;50.43;94492.19;2992001;39;20051;-70
2021/07/03 03:35:50;;;;;;;4.07;1.30;;;;;;;19.47;50.40;94482.38;2982318;39;20382;-71
2021/07/03 03:37:52;;;;;;;3.45;1.50;;;;;;;19.51;50.35;94499.53;2979770;39;20055;-71
2021/07/03 03:39:54;;;;;;;2.25;1.40;;;;;;;19.49;50.33;94496.28;2982775;39;20043;-70
2021/07/03 03:41:55;;;;;;;3.45;1.40;;;;;;;19.49;50.65;94495.44;2987440;39;20112;-72
2021/07/03 03:43:57;;;;;;;5.30;1.63;;;;;;;19.48;50.72;94488.50;2983485;39;20715;-72
2021/07/03 03:45:59;;;;;;;3.50;1.80;;;;;;;19.48;50.80;94477.88;2982506;39;20246;-71
2021/07/03 03:48:01;;;;;;;2.38;1.50;;;;;;;19.46;50.85;94483.41;2993719;39;20057;-71
2021/07/03 03:50:04;;;;;;;2.88;1.75;;;;;;;19.39;50.87;94482.66;2986911;39;20160;-71
2021/07/03 03:52:06;;;;;;;2.65;1.70;;;;;;;19.51;50.93;94480.09;2991957;39;20059;-70
2021/07/03 03:54:07;;;;;;;2.20;1.60;;;;;;;19.63;50.81;94481.81;2991799;39;20058;-70
2021/07/03 03:56:09;;;;;;;3.00;1.60;;;;;;;19.53;50.96;94484.19;2991320;39;20139;-72
2021/07/03 03:58:15;;;;;;;4.20;1.73;;;;;;;19.58;51.01;94494.94;2993236;39;20047;-80
2021/07/03 04:00:20;;;;;;;4.03;1.50;;;;;;;19.47;51.09;94485.06;2993172;39;20482;-79
2021/07/03 04:02:22;;;;;;;2.20;1.40;;;;;;;19.41;51.24;94492.03;2988896;39;20064;-80
2021/07/03 04:04:24;;;;;;;3.30;1.40;;;;;;;19.32;51.73;94484.59;2983976;39;20077;-80
2021/07/03 04:06:25;;;;;;;2.53;1.45;;;;;;;19.41;51.58;94500.00;2982764;39;20161;-80
2021/07/03 04:08:27;;;;;;;3.65;1.70;;;;;;;19.39;51.58;94485.31;2993738;39;20047;-79
2021/07/03 04:10:29;;;;;;;4.75;2.25;;;;;;;19.45;51.55;94487.09;2984194;39;20144;-80
2021/07/03 04:12:30;;;;;;;3.22;1.73;;;;;;;19.47;51.46;94490.38;2983463;39;20143;-71
2021/07/03 04:14:32;;;;;;;2.58;1.70;;;;;;;19.54;51.25;94488.44;2983209;39;20388;-71
2021/07/03 04:16:34;;;;;;;2.58;1.50;;;;;;;19.62;51.48;94496.13;2982524;39;20052;-72
2021/07/03 04:18:36;;;;;;;2.63;1.70;;;;;;;19.54;51.41;94496.41;2988620;39;20407;-71
2021/07/03 04:20:38;;;;;;;2.70;1.77;;;;;;;19.62;51.25;94492.66;2989647;39;20309;-70
2021/07/03 04:22:40;;;;;;;2.30;1.58;;;;;;;19.59;51.71;94495.75;2992831;39;20422;-70
2021/07/03 04:24:42;;;;;;;3.00;1.60;;;;;;;19.73;51.26;94491.97;2995182;39;20256;-71
2021/07/03 04:26:44;;;;;;;3.85;1.70;;;;;;;19.86;50.80;94499.00;2984653;39;20619;-71
2021/07/03 04:28:45;;;;;;;3.95;2.20;;;;;;;19.70;51.15;94499.56;2992835;39;20075;-71
2021/07/03 04:30:47;;;;;;;3.00;1.83;;;;;;;19.67;51.36;94499.97;2990466;39;20423;-71
2021/07/03 04:32:49;;;;;;;3.10;1.58;;;;;;;19.60;51.27;94498.19;2989116;39;20080;-72
2021/07/03 04:34:51;;;;;;;2.78;1.85;;;;;;;19.58;51.53;94510.88;2981142;39;20059;-73
2021/07/03 04:36:53;;;;;;;3.03;2.00;;;;;;;19.77;50.98;94502.97;2993290;39;20055;-72
2021/07/03 04:38:55;;;;;;;3.13;1.60;;;;;;;20.04;50.29;94493.66;2992143;39;20131;-72
2021/07/03 04:40:56;;;;;;;2.25;1.55;;;;;;;20.14;49.81;94500.31;2993680;39;20062;-71
2021/07/03 04:42:58;;;;;;;4.03;1.45;;;;;;;20.33;49.76;94495.78;2976665;39;20527;-72
2021/07/03 04:45:00;;;;;;;2.25;1.40;;;;;;;20.48;49.24;94503.34;2993053;39;20050;-71
2021/07/03 04:47:02;;;;;;;8.98;2.10;;;;;;;20.64;48.87;94492.91;2992492;39;20059;-71
2021/07/03 04:49:04;;;;;;;2.28;1.52;;;;;;;20.66;48.60;94492.69;2974874;39;20059;-72
2021/07/03 04:51:06;;;;;;;5.82;2.03;;;;;;;20.63;48.67;94507.28;2993100;39;20095;-71
2021/07/03 04:53:08;;;;;;;3.72;2.05;;;;;;;20.53;49.03;94511.47;2992845;39;20368;-71
2021/07/03 04:55:10;;;;;;;3.00;1.60;;;;;;;20.66;48.53;94500.69;2979654;39;20152;-72
2021/07/03 04:57:12;;;;;;;4.70;1.88;;;;;;;20.64;48.83;94513.41;2990504;39;20207;-72
2021/07/03 04:59:14;;;;;;;2.70;1.90;;;;;;;20.46;48.69;94512.38;2993437;39;20139;-72
2021/07/03 05:01:15;;;;;;;3.58;2.00;;;;;;;20.30;49.56;94512.97;2991575;39;20058;-72
2021/07/03 05:03:17;;;;;;;3.83;2.10;;;;;;;19.76;50.76;94522.59;2982726;39;20048;-72
2021/07/03 05:05:19;;;;;;;3.50;2.40;;;;;;;19.85;50.63;94507.97;2992684;39;20115;-71
2021/07/03 05:07:21;;;;;;;3.85;2.10;;;;;;;19.84;50.62;94514.34;2982430;39;20075;-71
2021/07/03 05:09:23;;;;;;;6.30;2.10;;;;;;;19.71;50.90;94515.28;2992791;39;20054;-72
2021/07/03 05:11:24;;;;;;;3.95;2.20;;;;;;;19.73;50.98;94504.44;2991407;39;20059;-72
2021/07/03 05:13:26;;;;;;;3.20;1.90;;;;;;;19.88;50.32;94509.41;2992631;39;20143;-71
2021/07/03 05:15:28;;;;;;;3.25;2.10;;;;;;;20.16;49.81;94520.31;2991986;39;20062;-71
2021/07/03 05:17:30;;;;;;;3.83;2.25;;;;;;;20.19;49.27;94509.22;2992341;39;20115;-70
2021/07/03 05:19:32;;;;;;;2.85;2.00;;;;;;;20.14;49.01;94518.94;2983286;39;20048;-71
2021/07/03 05:21:34;;;;;;;4.18;2.28;;;;;;;20.22;48.77;94521.28;2994882;39;20043;-73
2021/07/03 05:23:35;;;;;;;4.30;1.88;;;;;;;19.90;49.76;94517.97;2992742;39;20799;-72
2021/07/03 05:25:41;;;;;;;5.63;2.22;;;;;;;19.97;49.61;94524.81;2992442;39;20098;-73
2021/07/03 05:27:43;;;;;;;2.80;2.08;;;;;;;19.86;49.41;94527.41;2992543;39;20051;-70
2021/07/03 05:29:44;;;;;;;3.72;1.92;;;;;;;19.71;49.62;94520.59;2991663;39;20154;-72
2021/07/03 05:31:46;;;;;;;2.83;1.77;;;;;;;19.92;48.71;94524.69;2991535;39;20062;-72
2021/07/03 05:33:48;;;;;;;6.70;2.22;;;;;;;19.88;48.57;94534.13;2982207;39;20170;-73
2021/07/03 05:35:50;;;;;;;4.13;2.75;;;;;;;19.83;48.05;94526.00;2991590;39;20126;-72
2021/07/03 05:37:52;;;;;;;5.78;2.20;;;;;;;19.55;49.43;94524.63;2992327;39;20138;-71
2021/07/03 05:39:53;;;;;;;5.85;2.78;;;;;;;19.17;51.23;94528.22;2983144;39;20135;-73
2021/07/03 05:41:55;;;;;;;4.88;2.55;;;;;;;18.76;52.59;94526.03;2991350;39;20071;-71
2021/07/03 05:43:57;;;;;;;3.53;2.50;;;;;;;18.75;52.42;94546.41;2992899;39;20084;-72
2021/07/03 05:45:59;;;;;;;4.40;2.83;;;;;;;18.80;52.80;94551.94;2992787;39;20412;-82
2021/07/03 05:48:01;;;;;;;6.55;2.42;;;;;;;18.88;52.77;94524.31;2998482;39;20147;-81
2021/07/03 05:50:04;;;;;;;4.07;2.58;;;;;;;18.85;52.94;94522.09;2984152;39;20349;-81
2021/07/03 05:52:06;;;;;;;5.47;2.53;;;;;;;19.11;51.60;94521.09;2992863;39;20066;-81
2021/07/03 05:54:08;;;;;;;3.17;2.43;;;;;;;19.23;51.35;94532.66;2983927;39;20183;-81
2021/07/03 05:56:10;;;;;;;3.10;2.28;;;;;;;19.32;51.29;94527.06;2986065;39;20156;-82
2021/07/03 05:58:12;;;;;;;4.03;2.13;;;;;;;19.55;50.74;94526.44;2993329;39;20431;-80
2021/07/03 06:00:15;;;;;;;3.55;2.38;;;;;;;19.68;50.37;94530.81;2992808;39;20139;-81
2021/07/03 06:02:17;;;;;;;3.13;2.20;;;;;;;19.81;50.27;94526.22;2980174;39;20056;-82
2021/07/03 06:04:18;;;;;;;4.25;2.83;;;;;;;19.70;49.56;94534.09;2992864;39;20152;-80
2021/07/03 06:06:20;;;;;;;4.50;2.55;;;;;;;19.89;49.58;94522.47;2992210;39;20054;-81
2021/07/03 06:08:22;;;;;;;4.55;2.95;;;;;;;20.15;48.87;94521.34;2993959;39;20499;-81
2021/07/03 06:10:24;;;;;;;3.22;2.38;;;;;;;20.21;49.24;94524.97;2993237;39;20303;-83
2021/07/03 06:12:26;;;;;;;5.72;2.58;;;;;;;20.19;48.85;94532.34;2993246;39;20134;-81
2021/07/03 06:14:27;;;;;;;2.90;2.20;;;;;;;20.25;48.83;94534.13;2983923;39;20143;-85
2021/07/03 06:16:29;;;;;;;2.70;1.92;;;;;;;20.29;49.04;94519.34;2992596;39;20146;-80
2021/07/03 06:18:31;;;;;;;3.58;2.10;;;;;;;20.44;48.74;94514.44;2992674;39;20059;-80
2021/07/03 06:20:33;;;;;;;3.22;2.13;;;;;;;20.60;48.30;94515.69;2992680;39;20066;-81
2021/07/03 06:22:37;;;;;;;4.90;2.30;;;;;;;20.45;48.29;94510.72;2993131;39;20059;-81
2021/07/03 06:24:41;;;;;;;4.25;2.05;;;;;;;20.66;48.50;94512.13;2993353;39;20121;-81
2021/07/03 06:26:43;;;;;;;2.72;1.85;;;;;;;20.79;47.97;94515.66;2983500;39;20132;-80
2021/07/03 06:28:44;;;;;;;3.05;2.05;;;;;;;20.94;47.78;94523.22;2989308;39;20071;-83
2021/07/03 06:30:46;;;;;;;2.88;2.13;;;;;;;20.62;48.54;94526.13;2991716;39;20495;-78
2021/07/03 06:32:48;;;;;;;3.78;2.40;;;;;;;20.59;48.63;94530.03;2992697;39;20042;-80
2021/07/03 06:34:50;;;;;;;4.47;2.35;;;;;;;20.63;48.69;94525.91;2992959;39;20282;-80
2021/07/03 06:36:52;;;;;;;6.45;2.25;;;;;;;20.60;48.62;94530.84;2992798;39;20087;-82
2021/07/03 06:38:53;;;;;;;3.35;2.60;;;;;;;20.54;48.89;94529.06;2992761;39;20059;-79
2021/07/03 06:40:55;;;;;;;3.70;2.20;;;;;;;19.70;50.69;94544.72;2992131;39;20525;-81
2021/07/03 06:42:57;;;;;;;5.82;2.85;;;;;;;19.74;51.36;94540.59;2975168;39;20058;-81
2021/07/03 06:44:59;;;;;;;4.78;2.63;;;;;;;20.11;50.36;94535.31;2978120;39;20121;-80
2021/07/03 06:47:01;;;;;;;4.22;2.60;;;;;;;20.16;50.16;94543.44;2987538;39;20091;-80
2021/07/03 06:49:03;;;;;;;5.88;2.38;;;;;;;20.43;49.66;94539.44;2984629;39;20054;-81
2021/07/03 06:51:07;;;;;;;3.17;2.47;;;;;;;20.63;49.25;94536.53;2974932;39;20063;-80
2021/07/03 06:53:09;;;;;;;5.05;2.40;;;;;;;20.55;48.81;94538.69;2993019;39;20059;-80
2021/07/03 06:55:11;;;;;;;4.20;2.22;;;;;;;20.57;49.22;94531.28;2993378;39;20472;-83
2021/07/03 06:57:13;;;;;;;3.38;2.10;;;;;;;20.75;48.83;94543.75;2992502;39;20091;-82
2021/07/03 06:59:15;;;;;;;3.05;2.10;;;;;;;20.70;48.22;94541.78;2993383;39;20163;-80
2021/07/03 07:01:16;;;;;;;4.53;2.05;;;;;;;20.56;48.65;94538.44;2969140;39;20100;-81
2021/07/03 07:03:18;;;;;;;4.25;2.10;;;;;;;20.49;48.96;94524.41;2980994;39;20049;-81
2021/07/03 07:05:20;;;;;;;5.45;2.40;;;;;;;20.59;48.79;94531.91;2992963;39;20142;-80
2021/07/03 07:07:22;;;;;;;2.80;1.85;;;;;;;20.75;48.82;94535.78;2992855;39;20078;-83
2021/07/03 07:09:24;;;;;;;2.58;2.13;;;;;;;20.60;47.81;94528.19;2992821;39;20083;-82
2021/07/03 07:11:26;;;;;;;5.28;2.22;;;;;;;20.59;48.29;94524.72;2992201;39;20063;-82
2021/07/03 07:13:28;;;;;;;3.05;2.15;;;;;;;20.59;48.08;94522.06;2987112;39;20051;-82
2021/07/03 07:15:29;;;;;;;3.28;2.50;;;;;;;20.70;47.97;94532.97;2981884;39;20055;-74
2021/07/03 07:17:31;;;;;;;2.92;2.15;;;;;;;20.59;47.72;94538.03;2982738;39;20382;-75
2021/07/03 07:19:33;;;;;;;3.63;2.53;;;;;;;20.67;47.72;94523.56;2991751;39;20169;-72
2021/07/03 07:21:35;;;;;;;4.15;2.40;;;;;;;20.89;47.57;94526.56;2991606;39;20058;-74
2021/07/03 07:23:37;;;;;;;3.90;2.47;;;;;;;20.98;47.75;94527.84;2982863;39;20496;-73
2021/07/03 07:25:39;;;;;;;3.30;2.08;;;;;;;21.05;47.58;94527.75;2991730;39;20135;-72
2021/07/03 07:27:41;;;;;;;3.35;2.38;;;;;;;21.09;47.46;94528.13;2982460;39;20112;-72
2021/07/03 07:29:43;;;;;;;16.75;3.63;;;;;;;21.25;46.74;94519.44;2991631;39;20288;-72
2021/07/03 07:31:49;;;;;;;3.78;1.98;;;;;;;21.45;45.92;94527.16;2990452;39;20404;-75
2021/07/03 07:33:51;;;;;;;5.05;2.47;;;;;;;21.29;45.40;94523.28;2987286;39;20058;-73
2021/07/03 07:35:53;;;;;;;7.72;2.45;;;;;;;21.39;45.25;94523.53;2991644;39;20138;-74
2021/07/03 07:37:55;;;;;;;4.82;3.10;;;;;;;21.07;45.94;94531.00;2983265;39;20055;-71
2021/07/03 07:39:57;;;;;;;5.05;1.77;;;;;;;21.01;46.15;94534.56;2983279;39;20120;-71
2021/07/03 07:41:58;;;;;;;3.67;1.80;;;;;;;20.92;45.86;94531.44;2982327;39;20421;-73
2021/07/03 07:44:00;;;;;;;6.10;2.22;;;;;;;21.00;46.09;94516.97;2976508;39;20071;-73
2021/07/03 07:46:02;;;;;;;5.00;2.33;;;;;;;20.89;46.59;94536.38;2987953;39;20055;-75
2021/07/03 07:48:04;;;;;;;2.40;2.00;;;;;;;20.95;46.29;94530.16;2985467;39;20052;-75
2021/07/03 07:50:09;;;;;;;4.70;2.20;;;;;;;20.97;46.22;94536.91;2992148;39;20047;-73
2021/07/03 07:52:10;;;;;;;2.70;2.00;;;;;;;20.94;46.20;94548.00;2992026;39;20083;-72
2021/07/03 07:54:12;;;;;;;4.55;2.45;;;;;;;20.73;46.74;94533.31;2991682;39;20051;-73
2021/07/03 07:56:18;;;;;;;2.60;1.80;;;;;;;20.79;46.50;94529.75;2982415;39;20124;-73
2021/07/03 07:58:19;;;;;;;4.22;2.20;;;;;;;21.01;46.38;94535.38;2991766;39;20360;-73
2021/07/03 08:00:22;;;;;;;2.50;2.05;;;;;;;21.22;45.91;94536.69;2991337;39;20115;-72
2021/07/03 08:02:24;;;;;;;4.38;3.08;;;;;;;20.73;46.45;94543.97;2993223;39;20147;-72
2021/07/03 08:04:25;;;;;;;3.88;2.53;;;;;;;20.24;47.21;94545.78;2994920;39;20315;-73
2021/07/03 08:06:27;;;;;;;3.03;2.20;;;;;;;20.35;47.09;94542.41;2991760;39;20314;-72
2021/07/03 08:08:29;;;;;;;3.38;2.30;;;;;;;20.49;47.09;94540.38;2981903;39;20104;-72
2021/07/03 08:10:31;;;;;;;5.68;3.42;;;;;;;19.40;49.11;94554.19;2991933;39;20513;-81
2021/07/03 08:12:34;;;;;;;2.97;1.90;;;;;;;19.50;49.85;94551.00;2992602;39;20484;-82
2021/07/03 08:14:36;;;;;;;2.83;1.95;;;;;;;19.70;49.46;94544.72;2982612;39;20109;-84
2021/07/03 08:16:37;;;;;;;3.13;1.80;;;;;;;19.92;49.06;94543.31;2991515;39;20058;-80
2021/07/03 08:18:39;;;;;;;4.05;2.05;;;;;;;20.34;48.21;94537.28;2993078;39;20059;-80
2021/07/03 08:20:41;;;;;;;3.28;1.90;;;;;;;20.61;47.71;94543.94;2983516;39;20463;-81
2021/07/03 08:22:44;;;;;;;2.50;1.85;;;;;;;20.78;47.39;94541.47;2982537;39;20052;-72
2021/07/03 08:24:46;;;;;;;3.53;2.15;;;;;;;20.63;47.42;94552.50;2974065;39;20058;-71
2021/07/03 08:26:50;;;;;;;6.72;2.88;;;;;;;19.80;49.54;94555.69;2990696;39;20064;-81
2021/07/03 08:28:52;;;;;;;2.90;1.80;;;;;;;20.19;49.09;94548.31;2992217;39;20098;-80
2021/07/03 08:30:54;;;;;;;7.72;2.88;;;;;;;20.30;49.12;94539.59;2982375;39;20074;-81
2021/07/03 08:32:56;;;;;;;4.05;1.90;;;;;;;20.52;48.31;94545.25;2991870;39;20094;-80
2021/07/03 08:34:58;;;;;;;3.38;2.00;;;;;;;20.48;48.56;94540.59;2992214;39;20388;-80
2021/07/03 08:36:59;;;;;;;4.65;2.15;;;;;;;20.57;48.00;94539.28;2982621;39;20052;-81
2021/07/03 08:39:03;;;;;;;5.97;2.10;;;;;;;19.92;49.95;94534.47;2983289;39;20114;-81
2021/07/03 08:41:05;;;;;;;8.60;3.15;;;;;;;19.41;51.50;94541.69;2991496;39;20408;-72
2021/07/03 08:43:07;;;;;;;4.50;3.00;;;;;;;19.89;50.37;94540.25;2977637;39;20425;-73
2021/07/03 08:45:10;;;;;;;5.05;2.75;;;;;;;19.97;50.33;94547.94;2983214;39;20057;-71
2021/07/03 08:47:13;;;;;;;3.30;2.50;;;;;;;20.26;49.40;94535.75;2987626;39;20047;-72
2021/07/03 08:49:18;;;;;;;3.53;2.35;;;;;;;20.34;48.62;94546.09;2981356;39;20113;-72
2021/07/03 08:51:22;;;;;;;6.97;2.65;;;;;;;20.19;49.79;94533.16;2983292;39;20043;-72
2021/07/03 08:53:24;;;;;;;4.53;2.53;;;;;;;19.83;50.44;94541.94;2993597;39;20083;-80
2021/07/03 08:55:29;;;;;;;3.33;2.60;;;;;;;20.02;50.34;94540.09;2983982;39;20120;-79
2021/07/03 08:57:31;;;;;;;4.90;2.75;;;;;;;19.77;50.46;94521.59;2993967;39;20142;-79
2021/07/03 08:59:33;;;;;;;4.40;2.90;;;;;;;19.88;50.93;94531.47;2983458;39;20160;-78
2021/07/03 09:01:46;;;;;;;6.35;2.58;;;;;;;20.24;49.16;94516.53;2983373;39;20625;-81
2021/07/03 09:03:53;;;;;;;3.75;2.53;;;;;;;20.21;49.37;94532.94;2992206;39;20058;-79
2021/07/03 09:05:57;;;;;;;5.30;2.40;;;;;;;20.26;48.55;94519.78;2993692;39;20091;-79
2021/07/03 09:08:03;;;;;;;3.67;2.30;;;;;;;20.76;47.67;94530.22;2983608;39;20066;-83
2021/07/03 09:10:05;;;;;;;5.85;2.90;;;;;;;20.09;49.35;94532.06;2980549;39;20139;-79
2021/07/03 09:12:08;;;;;;;4.70;2.40;;;;;;;20.72;53.04;94523.72;2975123;39;20388;-75
2021/07/03 09:14:10;;;;;;;3.70;2.30;;;;;;;21.32;49.02;94522.84;2982959;39;20064;-76
2021/07/03 09:16:14;;;;;;;3.73;2.67;;;;;;;21.55;48.74;94527.38;2994355;39;20151;-74
2021/07/03 09:18:16;;;;;;;4.35;2.50;;;;;;;21.96;49.53;94514.16;2993364;39;20424;-74
2021/07/03 09:20:32;;;;;;;3.92;2.83;;;;;;;21.30;49.31;94527.56;2978684;39;20046;-78
2021/07/03 09:22:34;;;;;;;5.00;3.20;;;;;;;21.39;47.55;94528.84;2982969;39;20527;-76
2021/07/03 09:24:36;;;;;;;7.47;3.20;;;;;;;20.15;50.63;94531.97;2984719;39;20055;-78
2021/07/03 09:26:37;;;;;;;4.38;3.50;;;;;;;20.00;51.50;94528.88;2983672;39;20054;-81
2021/07/03 09:28:41;;;;;;;4.47;3.40;;;;;;;20.46;49.92;94543.50;2984333;39;20409;-83
2021/07/03 09:30:48;;;;;;;5.07;3.42;;;;;;;20.61;48.83;94525.31;2996054;39;20058;-84
2021/07/03 09:32:53;;;;;;;8.82;3.28;;;;;;;20.06;49.45;94517.38;2986769;39;20120;-84
2021/07/03 09:34:55;;;;;;;5.47;3.60;;;;;;;20.45;48.89;94524.03;2988034;39;20127;-84
2021/07/03 09:37:04;;;;;;;4.60;3.30;;;;;;;20.75;48.12;94523.25;2985054;39;20064;-84